createdAt,value
2018-05-16T00:00:43.136Z,83.50
2018-05-16T00:03:09.539Z,83.80
2018-05-16T00:05:35.942Z,83.90
2018-05-16T00:08:02.302Z,84.50
2018-05-16T00:10:29.459Z,84.10
2018-05-16T00:12:55.833Z,84.10
2018-05-16T00:15:22.936Z,83.90
2018-05-16T00:17:50.035Z,83.80
2018-05-16T00:20:16.417Z,84.40
2018-05-16T00:22:43.462Z,85.00
2018-05-16T00:25:09.823Z,85.00
2018-05-16T00:27:36.137Z,85.00
2018-05-16T00:30:02.505Z,85.20
2018-05-16T00:32:29.615Z,86.40
2018-05-16T00:34:55.995Z,86.40
2018-05-16T00:37:23.085Z,85.70
2018-05-16T00:39:49.521Z,85.70
2018-05-16T00:42:15.848Z,84.90
2018-05-16T00:44:43.003Z,86.30
2018-05-16T00:47:09.548Z,85.60
2018-05-16T00:49:36.674Z,88.30
2018-05-16T00:52:03.079Z,88.30
2018-05-16T00:54:30.202Z,86.10
2018-05-16T00:56:56.573Z,86.00
2018-05-16T00:59:23.272Z,84.00
2018-05-16T01:01:49.707Z,82.90
2018-05-16T01:04:16.038Z,83.10
2018-05-16T01:06:42.429Z,83.20
2018-05-16T01:09:08.792Z,83.60
2018-05-16T01:11:36.171Z,83.70
2018-05-16T01:14:03.309Z,83.90
2018-05-16T01:16:29.747Z,84.00
2018-05-16T01:18:56.159Z,84.20
2018-05-16T01:21:22.573Z,84.30
2018-05-16T01:23:49.737Z,85.30
2018-05-16T01:26:16.760Z,84.90
2018-05-16T01:28:43.054Z,84.90
2018-05-16T01:31:18.056Z,84.80
2018-05-16T01:33:44.385Z,85.10
2018-05-16T01:36:10.759Z,84.60
2018-05-16T01:38:37.162Z,84.40
2018-05-16T01:41:03.540Z,84.90
2018-05-16T01:43:30.661Z,84.40
2018-05-16T01:45:57.043Z,84.60
2018-05-16T01:48:23.449Z,84.00
2018-05-16T01:50:49.807Z,83.80
2018-05-16T01:53:16.261Z,83.90
2018-05-16T01:55:42.572Z,83.80
2018-05-16T01:58:08.959Z,83.80
2018-05-16T02:00:38.740Z,84.50
2018-05-16T02:03:05.073Z,84.40
2018-05-16T02:05:31.389Z,84.60
2018-05-16T02:07:57.758Z,84.30
2018-05-16T02:10:24.063Z,84.30
2018-05-16T02:12:50.365Z,84.50
2018-05-16T02:15:17.839Z,84.10
2018-05-16T02:17:44.183Z,84.20
2018-05-16T02:20:10.604Z,84.10
2018-05-16T02:22:37.007Z,83.80
2018-05-16T02:25:03.328Z,84.20
2018-05-16T02:27:29.842Z,84.00
2018-05-16T02:29:56.197Z,83.80
2018-05-16T02:32:22.556Z,83.70
2018-05-16T02:34:48.985Z,83.80
2018-05-16T02:37:15.977Z,83.80
2018-05-16T02:39:42.262Z,83.80
2018-05-16T02:42:08.629Z,84.50
2018-05-16T02:44:35.090Z,84.10
2018-05-16T02:47:01.418Z,83.80
2018-05-16T02:49:27.737Z,84.20
2018-05-16T02:51:54.061Z,84.30
2018-05-16T02:54:20.534Z,84.60
2018-05-16T02:56:46.791Z,84.50
2018-05-16T02:59:13.600Z,84.80
2018-05-16T03:01:39.928Z,84.60
2018-05-16T03:04:06.323Z,84.10
2018-05-16T03:06:32.679Z,84.30
2018-05-16T03:08:59.101Z,83.90
2018-05-16T03:11:25.452Z,84.30
2018-05-16T03:13:52.531Z,83.90
2018-05-16T03:16:18.993Z,83.90
2018-05-16T03:18:45.443Z,83.90
2018-05-16T03:21:11.787Z,83.80
2018-05-16T03:23:38.098Z,83.80
2018-05-16T03:26:04.473Z,83.80
2018-05-16T03:28:30.807Z,83.80
2018-05-16T03:30:57.238Z,84.60
2018-05-16T03:33:23.589Z,83.60
2018-05-16T03:35:49.986Z,83.80
2018-05-16T03:38:16.358Z,84.40
2018-05-16T03:40:42.713Z,84.10
2018-05-16T03:43:09.107Z,84.40
2018-05-16T03:45:35.478Z,83.60
2018-05-16T03:48:01.787Z,83.80
2018-05-16T03:50:28.127Z,82.70
2018-05-16T03:52:54.521Z,82.80
2018-05-16T03:55:20.863Z,82.90
2018-05-16T04:01:14.981Z,82.10
2018-05-16T04:18:29.582Z,81.90
2018-05-16T04:20:55.794Z,82.00
2018-05-16T04:23:22.009Z,82.00
2018-05-16T04:25:48.997Z,82.10
2018-05-16T04:28:15.221Z,82.10
2018-05-16T04:30:49.162Z,81.30
2018-05-16T04:33:15.404Z,81.60
2018-05-16T04:35:41.601Z,81.60
2018-05-16T04:38:07.858Z,81.40
2018-05-16T04:40:35.033Z,81.20
2018-05-16T04:43:01.261Z,81.10
2018-05-16T04:45:28.230Z,80.90
2018-05-16T04:47:55.298Z,80.90
2018-05-16T04:50:21.512Z,80.90
2018-05-16T04:52:47.796Z,80.10
2018-05-16T04:55:13.930Z,80.30
2018-05-16T04:57:40.527Z,79.90
2018-05-16T05:00:06.737Z,79.30
2018-05-16T05:02:32.937Z,80.10
2018-05-16T05:04:59.846Z,79.30
2018-05-16T05:07:26.052Z,79.30
2018-05-16T05:09:52.249Z,78.10
2018-05-16T05:12:19.604Z,77.40
2018-05-16T05:14:45.801Z,77.20
2018-05-16T05:17:12.042Z,77.60
2018-05-16T05:19:38.357Z,77.70
2018-05-16T05:22:04.569Z,77.60
2018-05-16T05:24:30.780Z,77.20
2018-05-16T05:26:57.024Z,75.30
2018-05-16T05:29:23.230Z,75.60
2018-05-16T05:31:50.174Z,75.60
2018-05-16T05:34:16.387Z,76.00
2018-05-16T05:36:42.718Z,75.80
2018-05-16T05:39:08.983Z,73.10
2018-05-16T05:41:35.206Z,74.40
2018-05-16T05:44:01.475Z,73.90
2018-05-16T05:46:28.413Z,74.10
2018-05-16T05:48:54.765Z,74.00
2018-05-16T05:51:21.073Z,74.50
2018-05-16T05:53:47.643Z,73.90
2018-05-16T05:56:13.872Z,74.50
2018-05-16T05:58:40.124Z,74.70
2018-05-16T06:01:07.116Z,77.20
2018-05-16T06:03:34.076Z,75.40
2018-05-16T06:06:01.096Z,75.30
2018-05-16T06:08:27.304Z,75.10
2018-05-16T06:10:53.529Z,75.70
2018-05-16T06:13:20.454Z,76.30
2018-05-16T06:15:46.852Z,76.30
2018-05-16T06:18:13.055Z,75.80
2018-05-16T06:20:40.055Z,77.10
2018-05-16T06:23:06.860Z,76.40
2018-05-16T06:25:33.044Z,77.00
2018-05-16T06:27:59.277Z,76.70
2018-05-16T06:30:25.482Z,76.40
2018-05-16T06:32:51.790Z,76.80
2018-05-16T06:35:17.995Z,76.40
2018-05-16T06:37:44.253Z,76.30
2018-05-16T06:40:10.580Z,75.60
2018-05-16T06:42:36.792Z,74.70
2018-05-16T06:45:03.746Z,75.40
2018-05-16T06:47:30.018Z,74.60
2018-05-16T06:49:56.948Z,75.40
2018-05-16T06:52:23.227Z,75.40
2018-05-16T06:54:49.474Z,75.80
2018-05-16T06:57:15.754Z,75.20
2018-05-16T06:59:41.932Z,75.10
2018-05-16T07:02:08.943Z,75.80
2018-05-16T07:04:35.252Z,75.80
2018-05-16T07:07:01.514Z,75.70
2018-05-16T07:09:27.801Z,76.10
2018-05-16T07:11:54.081Z,74.80
2018-05-16T07:14:20.332Z,74.80
2018-05-16T07:16:46.543Z,74.70
2018-05-16T07:19:12.837Z,74.80
2018-05-16T07:21:39.069Z,75.30
2018-05-16T07:24:05.381Z,75.10
2018-05-16T07:26:31.636Z,75.40
2018-05-16T07:28:57.833Z,75.90
2018-05-16T07:31:24.193Z,76.30
2018-05-16T07:33:51.288Z,76.50
2018-05-16T07:36:17.538Z,76.50
2018-05-16T07:38:43.739Z,76.90
2018-05-16T07:41:10.747Z,76.60
2018-05-16T07:43:36.929Z,76.60
2018-05-16T07:46:03.246Z,76.90
2018-05-16T07:48:29.470Z,76.90
2018-05-16T07:50:55.678Z,75.80
2018-05-16T07:53:21.948Z,75.20
2018-05-16T07:55:48.175Z,76.20
2018-05-16T07:58:14.375Z,76.60
2018-05-16T08:00:41.360Z,77.00
2018-05-16T08:03:07.688Z,77.00
2018-05-16T08:05:33.879Z,76.10
2018-05-16T08:08:00.238Z,75.90
2018-05-16T08:10:26.417Z,75.40
2018-05-16T08:12:52.590Z,74.70
2018-05-16T08:15:18.824Z,74.50
2018-05-16T08:17:45.100Z,74.00
2018-05-16T08:20:11.427Z,73.40
2018-05-16T08:22:37.649Z,74.20
2018-05-16T08:25:03.902Z,74.90
2018-05-16T08:27:30.135Z,75.10
2018-05-16T08:29:56.404Z,75.70
2018-05-16T08:32:22.745Z,73.50
2018-05-16T08:34:49.152Z,75.30
2018-05-16T08:37:19.901Z,73.80
2018-05-16T08:39:46.248Z,72.80
2018-05-16T08:42:12.619Z,73.30
2018-05-16T08:44:38.985Z,73.00
2018-05-16T08:47:06.186Z,72.30
2018-05-16T08:49:32.526Z,72.30
2018-05-16T08:51:58.916Z,72.70
2018-05-16T08:54:44.587Z,73.60
2018-05-16T08:57:10.982Z,71.80
2018-05-16T08:59:38.051Z,70.90
2018-05-16T09:02:04.387Z,70.90
2018-05-16T09:04:31.642Z,70.00
2018-05-16T09:06:57.999Z,70.00
2018-05-16T09:09:24.332Z,70.60
2018-05-16T09:11:50.629Z,69.50
2018-05-16T09:14:16.959Z,69.70
2018-05-16T09:16:43.291Z,69.40
2018-05-16T09:19:09.609Z,70.20
2018-05-16T09:21:35.958Z,71.50
2018-05-16T09:24:03.022Z,72.40
2018-05-16T09:26:31.224Z,72.90
2018-05-16T09:28:57.630Z,72.90
2018-05-16T09:31:26.098Z,72.10
2018-05-16T09:33:52.507Z,72.10
2018-05-16T09:36:18.904Z,71.50
2018-05-16T09:38:45.285Z,71.90
2018-05-16T09:41:12.325Z,71.90
2018-05-16T09:43:39.475Z,72.40
2018-05-16T09:46:05.804Z,72.40
2018-05-16T09:48:32.206Z,72.40
2018-05-16T09:50:58.590Z,71.80
2018-05-16T09:53:25.013Z,71.60
2018-05-16T09:55:51.535Z,69.40
2018-05-16T09:58:17.946Z,69.30
2018-05-16T10:00:44.288Z,68.90
2018-05-16T10:03:10.622Z,69.40
2018-05-16T10:05:36.986Z,70.20
2018-05-16T10:08:03.317Z,69.80
2018-05-16T10:10:29.743Z,69.20
2018-05-16T10:12:56.107Z,69.40
2018-05-16T10:15:22.422Z,67.90
2018-05-16T10:17:48.823Z,68.10
2018-05-16T10:20:15.186Z,67.20
2018-05-16T10:22:41.600Z,68.10
2018-05-16T10:25:07.925Z,69.30
2018-05-16T10:27:35.769Z,69.00
2018-05-16T10:30:02.153Z,68.60
2018-05-16T10:32:29.309Z,66.80
2018-05-16T10:34:55.711Z,66.80
2018-05-16T10:37:22.028Z,66.40
2018-05-16T10:39:49.155Z,65.20
2018-05-16T10:42:15.546Z,65.20
2018-05-16T10:44:42.080Z,66.20
2018-05-16T10:47:08.391Z,65.30
2018-05-16T10:49:34.796Z,65.80
2018-05-16T10:52:01.328Z,66.10
2018-05-16T10:54:29.556Z,66.60
2018-05-16T10:56:55.917Z,66.00
2018-05-16T10:59:22.305Z,66.50
2018-05-16T11:01:48.741Z,67.50
2018-05-16T11:04:15.918Z,66.90
2018-05-16T11:06:42.247Z,66.80
2018-05-16T11:09:08.600Z,66.30
2018-05-16T11:11:35.701Z,66.70
2018-05-16T11:14:02.062Z,66.80
2018-05-16T11:16:28.470Z,67.10
2018-05-16T11:18:54.801Z,67.50
2018-05-16T11:21:23.329Z,67.20
2018-05-16T11:23:49.734Z,67.10
2018-05-16T11:26:16.169Z,67.70
2018-05-16T11:28:42.516Z,67.90
2018-05-16T11:31:09.616Z,66.80
2018-05-16T11:33:37.189Z,66.80
2018-05-16T11:36:03.572Z,65.50
2018-05-16T11:38:29.907Z,66.20
2018-05-16T11:40:56.254Z,66.30
2018-05-16T11:43:22.820Z,65.00
2018-05-16T11:45:49.235Z,65.70
2018-05-16T11:48:16.355Z,65.50
2018-05-16T11:50:42.701Z,65.50
2018-05-16T11:53:09.116Z,65.90
2018-05-16T11:55:39.491Z,64.50
2018-05-16T11:58:05.854Z,64.50
2018-05-16T12:00:32.230Z,64.20
2018-05-16T12:02:59.344Z,65.10
2018-05-16T12:05:27.777Z,65.60
2018-05-16T12:07:54.159Z,66.70
2018-05-16T12:10:21.354Z,67.50
2018-05-16T12:12:47.645Z,67.50
2018-05-16T12:15:14.058Z,67.70
2018-05-16T12:17:40.447Z,67.30
2018-05-16T12:20:07.530Z,67.50
2018-05-16T12:22:33.931Z,67.30
2018-05-16T12:25:00.328Z,66.90
2018-05-16T12:27:26.720Z,67.20
2018-05-16T12:29:53.060Z,67.50
2018-05-16T12:32:19.505Z,69.40
2018-05-16T12:34:45.901Z,71.00
2018-05-16T12:37:12.271Z,72.00
2018-05-16T12:39:38.635Z,71.20
2018-05-16T12:42:05.092Z,72.10
2018-05-16T12:44:32.239Z,73.60
2018-05-16T12:46:58.613Z,73.50
2018-05-16T12:49:25.734Z,72.90
2018-05-16T12:51:52.117Z,72.90
2018-05-16T12:54:19.235Z,72.60
2018-05-16T12:56:45.661Z,72.60
2018-05-16T12:59:12.165Z,73.10
2018-05-16T13:01:39.323Z,74.40
2018-05-16T13:04:07.790Z,74.40
2018-05-16T13:06:34.275Z,73.70
2018-05-16T13:09:00.588Z,73.90
2018-05-16T13:11:26.945Z,71.60
2018-05-16T13:13:53.314Z,70.90
2018-05-16T13:16:20.412Z,71.10
2018-05-16T13:18:46.790Z,70.90
2018-05-16T13:21:13.219Z,70.90
2018-05-16T13:23:39.630Z,71.10
2018-05-16T13:26:06.023Z,70.30
2018-05-16T13:28:32.425Z,69.50
2018-05-16T13:30:58.805Z,68.80
2018-05-16T13:33:25.556Z,68.90
2018-05-16T13:35:54.098Z,67.90
2018-05-16T13:38:20.491Z,68.00
2018-05-16T13:40:47.024Z,68.00
2018-05-16T13:43:13.445Z,69.70
2018-05-16T13:45:39.796Z,68.80
2018-05-16T13:48:06.238Z,69.70
2018-05-16T13:50:32.605Z,69.00
2018-05-16T13:52:58.941Z,68.90
2018-05-16T13:55:25.338Z,70.10
2018-05-16T13:57:51.787Z,67.30
2018-05-16T14:00:18.168Z,68.20
2018-05-16T14:02:44.712Z,68.20
2018-05-16T14:05:11.145Z,67.40
2018-05-16T14:07:37.567Z,65.40
2018-05-16T14:10:03.929Z,65.30
2018-05-16T14:12:30.997Z,63.60
2018-05-16T14:14:57.407Z,63.60
2018-05-16T14:17:23.762Z,62.40
2018-05-16T14:19:52.282Z,61.10
2018-05-16T14:22:19.074Z,60.80
2018-05-16T14:24:45.472Z,59.40
2018-05-16T14:27:12.720Z,59.10
2018-05-16T14:29:39.350Z,59.10
2018-05-16T14:32:05.689Z,60.40
2018-05-16T14:34:32.500Z,60.40
2018-05-16T14:36:58.899Z,61.60
2018-05-16T14:39:25.239Z,61.60
2018-05-16T14:41:51.662Z,62.10
2018-05-16T14:44:18.147Z,62.20
2018-05-16T14:46:44.476Z,61.80
2018-05-16T14:49:10.827Z,62.00
2018-05-16T14:51:37.203Z,61.70
2018-05-16T14:54:04.274Z,63.90
2018-05-16T14:56:30.591Z,63.80
2018-05-16T14:58:57.658Z,62.00
2018-05-16T15:01:24.821Z,60.80
2018-05-16T15:03:51.958Z,60.30
2018-05-16T15:06:18.349Z,61.00
2018-05-16T15:08:44.657Z,59.00
2018-05-16T15:11:11.032Z,57.30
2018-05-16T15:13:37.771Z,58.20
2018-05-16T15:16:04.948Z,58.20
2018-05-16T15:18:31.307Z,58.20
2018-05-16T15:20:57.676Z,58.40
2018-05-16T15:23:24.011Z,58.50
2018-05-16T15:25:50.477Z,56.70
2018-05-16T15:28:16.854Z,55.30
2018-05-16T15:30:43.929Z,55.60
2018-05-16T15:33:10.309Z,55.50
2018-05-16T15:35:36.610Z,57.30
2018-05-16T15:38:03.036Z,57.50
2018-05-16T15:40:29.471Z,56.70
2018-05-16T15:42:55.844Z,56.30
2018-05-16T15:45:22.883Z,56.50
2018-05-16T15:47:50.219Z,56.50
2018-05-16T15:50:16.620Z,57.80
2018-05-16T15:52:43.660Z,57.50
2018-05-16T15:55:10.823Z,59.10
2018-05-16T15:57:38.111Z,59.30
2018-05-16T16:00:04.514Z,59.30
2018-05-16T16:02:30.817Z,60.20
2018-05-16T16:04:57.253Z,61.00
2018-05-16T16:07:23.572Z,61.50
2018-05-16T16:09:49.839Z,61.50
2018-05-16T16:12:16.304Z,60.30
2018-05-16T16:14:42.705Z,60.40
2018-05-16T16:17:13.245Z,60.60
2018-05-16T16:19:39.549Z,60.50
2018-05-16T16:22:06.071Z,59.60
2018-05-16T16:24:32.385Z,60.20
2018-05-16T16:26:59.479Z,60.40
2018-05-16T16:29:25.888Z,60.30
2018-05-16T16:31:53.068Z,62.20
2018-05-16T16:34:19.397Z,62.10
2018-05-16T16:36:49.163Z,62.40
2018-05-16T16:39:15.646Z,62.20
2018-05-16T16:41:42.008Z,62.90
2018-05-16T16:44:09.200Z,64.40
2018-05-16T16:46:35.641Z,64.40
2018-05-16T16:49:01.975Z,64.20
2018-05-16T16:51:28.291Z,65.20
2018-05-16T16:53:54.637Z,66.00
2018-05-16T16:56:27.812Z,66.50
2018-05-16T16:58:54.241Z,66.80
2018-05-16T17:01:21.740Z,68.00
2018-05-16T17:03:48.071Z,69.10
2018-05-16T17:06:14.455Z,69.10
2018-05-16T17:08:41.898Z,70.40
2018-05-16T17:11:11.913Z,69.20
2018-05-16T17:13:38.304Z,69.30
2018-05-16T17:16:05.539Z,69.70
2018-05-16T17:18:31.859Z,69.60
2018-05-16T17:20:58.188Z,69.80
2018-05-16T17:23:24.537Z,70.20
2018-05-16T17:25:50.858Z,71.20
2018-05-16T17:28:17.268Z,71.70
2018-05-16T17:30:43.581Z,72.60
2018-05-16T17:33:09.991Z,73.30
2018-05-16T17:35:36.323Z,73.50
2018-05-16T17:38:03.499Z,74.30
2018-05-16T17:40:29.870Z,74.10
2018-05-16T17:42:56.270Z,74.40
2018-05-16T17:45:23.381Z,75.30
2018-05-16T17:47:49.831Z,75.30
2018-05-16T17:50:16.157Z,75.60
2018-05-16T17:52:42.513Z,75.20
2018-05-16T17:55:08.825Z,75.50
2018-05-16T17:57:35.298Z,75.70
2018-05-16T18:00:01.634Z,76.10
2018-05-16T18:02:28.030Z,76.80
2018-05-16T18:04:54.349Z,76.70
2018-05-16T18:07:20.688Z,76.90
2018-05-16T18:09:59.422Z,76.70
2018-05-16T18:12:25.743Z,77.20
2018-05-16T18:18:13.917Z,77.70
2018-05-16T18:20:40.162Z,78.00
2018-05-16T18:23:06.356Z,78.20
2018-05-16T18:25:32.578Z,78.30
2018-05-16T18:27:58.821Z,78.90
2018-05-16T18:30:25.014Z,78.90
2018-05-16T18:32:51.385Z,78.60
2018-05-16T18:35:17.580Z,78.90
2018-05-16T18:37:44.561Z,78.20
2018-05-16T18:40:10.756Z,78.20
2018-05-16T18:42:37.087Z,78.40
2018-05-16T18:45:03.231Z,78.00
2018-05-16T18:47:36.517Z,78.60
2018-05-16T18:50:02.766Z,78.70
2018-05-16T18:52:44.094Z,78.90
2018-05-16T18:55:10.349Z,79.00
2018-05-16T18:57:37.366Z,79.30
2018-05-16T19:00:04.370Z,79.20
2018-05-16T19:02:31.359Z,78.20
2018-05-16T19:04:57.543Z,78.20
2018-05-16T19:07:23.775Z,78.10
2018-05-16T19:09:50.033Z,77.80
2018-05-16T19:12:17.022Z,77.30
2018-05-16T19:14:43.239Z,77.20
2018-05-16T19:17:09.431Z,78.00
2018-05-16T19:19:36.372Z,77.70
2018-05-16T19:22:02.618Z,77.70
2018-05-16T19:24:28.800Z,77.20
2018-05-16T19:26:54.993Z,77.10
2018-05-16T19:29:21.231Z,78.10
2018-05-16T19:31:47.428Z,78.60
2018-05-16T19:34:13.632Z,79.10
2018-05-16T19:36:39.920Z,78.80
2018-05-16T19:39:08.190Z,75.40
2018-05-16T19:41:34.396Z,75.60
2018-05-16T19:44:01.656Z,76.70
2018-05-16T19:46:27.983Z,77.00
2018-05-16T19:48:54.308Z,77.00
2018-05-16T19:51:20.524Z,77.90
2018-05-16T19:53:46.809Z,77.60
2018-05-16T19:56:13.122Z,79.00
2018-05-16T19:58:39.541Z,79.60
2018-05-16T20:01:06.749Z,81.70
2018-05-16T20:03:33.818Z,82.40
2018-05-16T20:06:09.002Z,82.40
2018-05-16T20:08:35.365Z,81.30
2018-05-16T20:11:02.658Z,83.70
2018-05-16T20:13:37.819Z,84.40
2018-05-16T20:16:05.090Z,84.40
2018-05-16T20:18:31.506Z,84.40
2018-05-16T20:21:08.198Z,84.80
2018-05-16T20:23:34.529Z,85.40
2018-05-16T20:26:00.834Z,85.90
2018-05-16T20:28:27.274Z,85.80
2018-05-16T20:30:53.660Z,85.80
2018-05-16T20:33:20.043Z,85.20
2018-05-16T20:36:04.664Z,86.00
2018-05-16T20:38:31.039Z,85.90
2018-05-16T20:41:00.321Z,86.00
2018-05-16T20:43:26.702Z,86.60
2018-05-16T20:45:53.767Z,85.90
2018-05-16T20:48:27.624Z,86.60
2018-05-16T20:50:53.986Z,86.50
2018-05-16T20:53:20.501Z,86.30
2018-05-16T20:55:46.906Z,86.50
2018-05-16T20:58:13.243Z,86.20
2018-05-16T21:00:39.614Z,86.30
2018-05-16T21:03:07.866Z,86.00
2018-05-16T21:05:34.308Z,86.00
2018-05-16T21:08:00.711Z,86.60
2018-05-16T21:10:27.109Z,84.30
2018-05-16T21:13:13.357Z,85.10
2018-05-16T21:15:40.509Z,83.20
2018-05-16T21:18:07.631Z,84.30
2018-05-16T21:20:35.063Z,84.20
2018-05-16T21:23:01.470Z,84.40
2018-05-16T21:25:27.875Z,84.50
2018-05-16T21:27:54.202Z,84.90
2018-05-16T21:30:20.600Z,85.70
2018-05-16T21:32:47.044Z,87.20
2018-05-16T21:35:13.454Z,86.50
2018-05-16T21:37:39.785Z,87.20
2018-05-16T21:40:06.184Z,88.00
2018-05-16T21:42:32.500Z,88.50
2018-05-16T21:44:58.994Z,88.70
2018-05-16T21:47:26.084Z,87.70
2018-05-16T21:49:52.487Z,87.70
2018-05-16T21:52:19.637Z,87.60
2018-05-16T21:54:46.104Z,87.60
2018-05-16T21:57:13.237Z,87.90
2018-05-16T21:59:39.620Z,87.90
2018-05-16T22:02:06.731Z,88.30
2018-05-16T22:04:33.086Z,88.30
2018-05-16T22:06:59.423Z,88.20
2018-05-16T22:09:25.979Z,88.30
2018-05-16T22:11:52.430Z,88.60
2018-05-16T22:14:18.799Z,88.30
2018-05-16T22:16:46.189Z,88.20
2018-05-16T22:19:12.527Z,88.10
2018-05-16T22:21:38.957Z,88.10
2018-05-16T22:24:06.013Z,88.10
2018-05-16T22:26:33.110Z,88.30
2018-05-16T22:28:59.483Z,88.20
2018-05-16T22:31:42.792Z,88.20
2018-05-16T22:34:15.135Z,88.30
2018-05-16T22:36:47.589Z,88.00
2018-05-16T22:39:20.028Z,87.50
2018-05-16T22:41:56.823Z,88.00
2018-05-16T22:57:58.342Z,88.70
2018-05-16T23:00:24.575Z,88.60
2018-05-16T23:02:50.788Z,88.70
2018-05-16T23:05:17.000Z,88.80
2018-05-16T23:07:43.281Z,88.00
2018-05-16T23:10:09.484Z,88.40
2018-05-16T23:12:35.698Z,88.10
2018-05-16T23:15:02.766Z,88.60
2018-05-16T23:17:28.964Z,88.40
2018-05-16T23:19:55.253Z,87.30
2018-05-16T23:22:21.455Z,87.30
2018-05-16T23:24:47.697Z,87.80
2018-05-16T23:27:13.884Z,87.60
2018-05-16T23:29:40.072Z,88.00
2018-05-16T23:32:06.252Z,88.10
2018-05-16T23:34:32.474Z,88.20
2018-05-16T23:36:59.410Z,88.60
2018-05-16T23:39:25.590Z,88.40
2018-05-16T23:41:51.826Z,89.00
2018-05-16T23:44:19.135Z,88.40
2018-05-16T23:46:46.053Z,86.30
2018-05-16T23:49:12.280Z,86.30
2018-05-16T23:51:39.194Z,86.60
2018-05-16T23:54:05.408Z,86.50
2018-05-16T23:56:32.041Z,86.60
2018-05-16T23:58:58.245Z,87.40
